Time;durP1;ratioP1;P1;durP2;ratioP2;P2;SDS_P1;SDS_P2;PMS_P1;PMS_P2;Temp;Humidity;BMP_temperature;BMP_pressure;BME280_temperature;BME280_humidity;BME280_pressure;Samples;Min_cycle;Max_cycle;Signal;HPM_P1;HPM_P2
2021/03/18 00:00:09;;;;;;;36.83;21.17;;;0.60;98.80;;;;;;5092881;28;20514;-67
2021/03/18 00:02:36;;;;;;;32.92;19.23;;;0.60;99.00;;;;;;5091521;28;20209;-65
2021/03/18 00:05:05;;;;;;;34.80;20.60;;;0.60;98.90;;;;;;5089078;28;20198;-65
2021/03/18 00:07:31;;;;;;;34.45;20.73;;;0.50;99.10;;;;;;5093565;28;20228;-66
2021/03/18 00:09:58;;;;;;;37.78;20.80;;;0.50;99.10;;;;;;5090429;28;20262;-68
2021/03/18 00:12:25;;;;;;;39.40;22.88;;;0.30;99.40;;;;;;5092179;28;20215;-68
2021/03/18 00:14:52;;;;;;;38.08;21.92;;;0.20;99.80;;;;;;5086889;28;20507;-66
2021/03/18 00:17:19;;;;;;;34.95;21.13;;;0.10;99.90;;;;;;5089531;28;20202;-67
2021/03/18 00:19:46;;;;;;;34.90;20.75;;;0.20;99.90;;;;;;5087476;28;20205;-67
2021/03/18 00:22:12;;;;;;;30.35;19.48;;;0.10;99.90;;;;;;5096283;28;20251;-66
2021/03/18 00:24:39;;;;;;;35.33;21.48;;;1.20;99.90;;;;;;5084487;28;20236;-66
2021/03/18 00:27:05;;;;;;;28.05;19.80;;;0.10;99.90;;;;;;5087607;28;20239;-67
2021/03/18 00:29:32;;;;;;;38.22;23.40;;;0.00;99.90;;;;;;5091422;28;20213;-67
2021/03/18 00:31:58;;;;;;;36.03;22.85;;;0.10;99.90;;;;;;5090238;28;20213;-67
2021/03/18 00:34:25;;;;;;;29.17;19.88;;;0.10;99.90;;;;;;5087492;28;20315;-67
2021/03/18 00:36:52;;;;;;;34.13;19.80;;;0.10;99.90;;;;;;5087881;28;20217;-67
2021/03/18 00:39:18;;;;;;;42.25;22.75;;;0.50;99.90;;;;;;5086445;28;20210;-67
2021/03/18 00:41:45;;;;;;;31.33;19.55;;;-0.90;99.60;;;;;;5090933;28;20212;-67
2021/03/18 00:44:12;;;;;;;33.42;21.63;;;0.20;99.90;;;;;;5091978;28;20478;-66
2021/03/18 00:46:38;;;;;;;34.10;20.00;;;0.10;99.70;;;;;;5088268;28;20448;-66
2021/03/18 00:49:07;;;;;;;32.47;18.88;;;0.20;99.60;;;;;;5089271;28;20270;-67
2021/03/18 00:51:34;;;;;;;31.13;19.73;;;0.10;99.90;;;;;;5086794;28;20278;-67
2021/03/18 00:54:00;;;;;;;32.92;20.45;;;0.10;99.90;;;;;;5091084;28;20216;-66
2021/03/18 00:56:27;;;;;;;28.95;18.90;;;0.30;99.60;;;;;;5088721;28;20215;-67
2021/03/18 00:58:54;;;;;;;31.17;17.80;;;0.10;99.50;;;;;;5090035;28;20226;-66
2021/03/18 01:01:24;;;;;;;30.33;18.00;;;0.10;99.50;;;;;;5088447;28;20207;-67
2021/03/18 01:03:50;;;;;;;29.15;17.50;;;0.10;99.40;;;;;;5090400;28;20527;-66
2021/03/18 01:06:19;;;;;;;32.88;19.42;;;0.80;99.60;;;;;;5089157;28;20314;-65
2021/03/18 01:08:46;;;;;;;32.05;18.40;;;0.10;99.30;;;;;;5094080;28;20211;-66
2021/03/18 01:11:15;;;;;;;23.95;16.92;;;0.10;99.30;;;;;;5090781;28;20512;-67
2021/03/18 01:13:44;;;;;;;24.30;16.33;;;0.00;99.30;;;;;;5100006;28;20224;-65
2021/03/18 01:16:22;;;;;;;24.65;17.63;;;0.00;99.50;;;;;;5093431;28;20486;-66
2021/03/18 01:18:58;;;;;;;23.95;15.25;;;0.00;99.40;;;;;;5093345;28;20205;-66
2021/03/18 01:21:34;;;;;;;28.08;16.60;;;0.00;99.30;;;;;;5092649;28;20512;-66
2021/03/18 01:24:02;;;;;;;27.58;16.80;;;-0.10;99.30;;;;;;5081656;28;20270;-66
2021/03/18 01:26:28;;;;;;;28.80;15.75;;;-0.20;99.60;;;;;;5094239;28;20592;-66
2021/03/18 01:28:55;;;;;;;27.08;17.45;;;-0.30;99.80;;;;;;5090382;28;20210;-65
2021/03/18 01:31:22;;;;;;;25.48;15.90;;;-0.10;99.70;;;;;;5096508;28;20202;-67
2021/03/18 01:33:49;;;;;;;21.77;15.80;;;0.90;99.90;;;;;;5095990;28;20206;-67
2021/03/18 01:36:16;;;;;;;24.92;14.57;;;-0.20;99.60;;;;;;5088942;28;20241;-66
2021/03/18 01:38:46;;;;;;;23.85;15.48;;;-0.10;99.60;;;;;;5094809;28;20213;-64
2021/03/18 01:41:14;;;;;;;27.15;15.45;;;0.20;99.90;;;;;;5093447;28;20222;-65
2021/03/18 01:43:42;;;;;;;26.05;14.70;;;-0.40;99.90;;;;;;5090936;28;20212;-66
2021/03/18 01:46:10;;;;;;;24.08;15.13;;;-0.50;99.90;;;;;;5092824;28;20263;-66
2021/03/18 01:48:37;;;;;;;26.00;15.20;;;-0.40;99.80;;;;;;5093465;28;20207;-66
2021/03/18 01:51:04;;;;;;;25.70;16.27;;;-0.20;99.90;;;;;;5095758;28;20198;-66
2021/03/18 01:53:31;;;;;;;27.63;17.70;;;-0.40;99.90;;;;;;5091731;28;20225;-66
2021/03/18 01:55:59;;;;;;;23.75;15.85;;;-0.40;99.90;;;;;;5090797;28;20543;-65
2021/03/18 01:58:26;;;;;;;25.20;17.23;;;0.30;99.90;;;;;;5089161;28;20195;-65
2021/03/18 02:00:56;;;;;;;26.60;17.70;;;-0.30;99.90;;;;;;5093356;28;20223;-65
2021/03/18 02:03:24;;;;;;;26.75;16.80;;;-0.40;99.80;;;;;;5085727;28;20214;-65
2021/03/18 02:05:51;;;;;;;25.42;17.08;;;-0.30;99.70;;;;;;5090369;28;20257;-65
2021/03/18 02:08:18;;;;;;;28.83;19.92;;;-0.30;99.50;;;;;;5094241;28;20405;-65
2021/03/18 02:10:44;;;;;;;27.73;17.20;;;0.00;99.50;;;;;;5087861;28;20199;-65
2021/03/18 02:13:13;;;;;;;26.65;17.13;;;-0.20;99.10;;;;;;5092329;28;20206;-65
2021/03/18 02:15:43;;;;;;;22.67;17.58;;;-0.20;99.40;;;;;;5085950;28;20222;-66
2021/03/18 02:18:47;;;;;;;24.95;16.27;;;-0.30;99.20;;;;;;5089858;28;20214;-65
2021/03/18 02:21:45;;;;;;;26.80;17.40;;;-0.30;99.30;;;;;;5092620;28;20392;-64
2021/03/18 02:24:42;;;;;;;27.88;17.23;;;-0.50;99.40;;;;;;5090109;28;20531;-65
2021/03/18 02:27:30;;;;;;;28.88;17.88;;;-0.50;99.70;;;;;;5091974;28;20230;-64
2021/03/18 02:30:22;;;;;;;30.38;18.33;;;-0.10;99.90;;;;;;5091154;28;20203;-65
2021/03/18 02:33:18;;;;;;;25.63;17.65;;;-0.60;99.90;;;;;;5092096;28;20218;-64
2021/03/18 02:35:52;;;;;;;29.10;16.90;;;-0.70;99.90;;;;;;5055165;28;20561;-64
2021/03/18 02:38:23;;;;;;;27.80;17.20;;;-0.70;99.90;;;;;;5085675;28;20515;-65
2021/03/18 02:40:56;;;;;;;23.67;17.15;;;-0.60;99.90;;;;;;5087491;28;20202;-65
2021/03/18 02:43:24;;;;;;;29.52;18.90;;;0.10;99.90;;;;;;5088860;28;20500;-65
2021/03/18 02:45:57;;;;;;;24.70;16.52;;;-0.70;99.90;;;;;;5082397;28;20251;-65
2021/03/18 02:48:30;;;;;;;27.35;18.10;;;0.00;99.90;;;;;;5092953;28;20213;-65
2021/03/18 02:50:58;;;;;;;30.67;19.02;;;-0.70;99.90;;;;;;5092876;28;20194;-65
2021/03/18 02:53:26;;;;;;;23.45;17.17;;;-0.80;99.90;;;;;;5096271;28;20281;-65
2021/03/18 02:55:55;;;;;;;28.63;14.82;;;-0.90;99.90;;;;;;5096449;28;20220;-65
2021/03/18 02:58:26;;;;;;;22.30;14.98;;;0.00;99.90;;;;;;5092623;28;20248;-64
2021/03/18 03:00:55;;;;;;;22.02;15.40;;;0.00;99.90;;;;;;5093353;28;20202;-66
2021/03/18 03:03:44;;;;;;;24.45;15.57;;;-0.90;99.90;;;;;;5087610;28;20538;-65
2021/03/18 03:06:14;;;;;;;23.55;15.93;;;-0.90;99.90;;;;;;5086781;28;20254;-64
2021/03/18 03:08:41;;;;;;;25.35;15.13;;;-0.90;99.90;;;;;;5093442;28;20209;-64
2021/03/18 03:11:09;;;;;;;26.85;15.65;;;-1.10;99.90;;;;;;5094910;28;20202;-65
2021/03/18 03:13:40;;;;;;;35.50;18.30;;;-0.70;99.90;;;;;;5086967;28;20203;-64
2021/03/18 03:16:15;;;;;;;24.33;16.50;;;-1.10;99.90;;;;;;5093472;28;20213;-63
2021/03/18 03:18:43;;;;;;;24.50;15.82;;;-1.00;99.90;;;;;;5088944;28;20202;-63
2021/03/18 03:21:13;;;;;;;22.17;15.63;;;-1.00;99.90;;;;;;5094694;28;20202;-63
2021/03/18 03:23:40;;;;;;;23.85;16.00;;;-0.90;99.90;;;;;;5090049;28;20201;-63
2021/03/18 03:26:07;;;;;;;26.25;15.75;;;0.00;99.90;;;;;;5090256;28;20249;-63
2021/03/18 03:28:36;;;;;;;26.40;16.92;;;-0.90;99.90;;;;;;5091215;28;20206;-65
2021/03/18 03:31:03;;;;;;;22.08;16.08;;;-1.10;99.90;;;;;;5091664;28;20481;-64
2021/03/18 03:33:30;;;;;;;27.15;16.70;;;-1.10;99.90;;;;;;5094337;28;20213;-64
2021/03/18 03:35:59;;;;;;;26.95;17.95;;;-1.10;99.90;;;;;;5088547;28;20242;-65
2021/03/18 03:38:26;;;;;;;26.70;16.85;;;-0.90;99.90;;;;;;5089336;28;20213;-64
2021/03/18 03:40:53;;;;;;;27.75;18.98;;;-0.80;99.90;;;;;;5091533;28;20206;-64
2021/03/18 03:43:20;;;;;;;37.17;19.75;;;-1.00;99.90;;;;;;5095333;28;20368;-64
2021/03/18 03:45:48;;;;;;;26.52;16.48;;;-1.10;99.90;;;;;;5091955;28;20471;-64
2021/03/18 03:48:15;;;;;;;29.55;19.25;;;-0.60;99.90;;;;;;5086083;28;20199;-64
2021/03/18 03:50:43;;;;;;;30.15;19.85;;;-1.00;99.90;;;;;;5089497;28;20265;-63
2021/03/18 03:53:26;;;;;;;28.23;20.58;;;-1.00;99.90;;;;;;5087186;28;20210;-64
2021/03/18 03:56:09;;;;;;;32.25;20.88;;;-1.10;99.90;;;;;;5093286;28;20206;-63
2021/03/18 03:58:46;;;;;;;26.30;18.80;;;-1.00;99.90;;;;;;5091336;28;20202;-63
2021/03/18 04:01:36;;;;;;;31.27;20.63;;;-0.90;99.90;;;;;;5096153;28;20197;-63
2021/03/18 04:04:26;;;;;;;30.60;21.67;;;-0.80;99.70;;;;;;5094062;28;20692;-63
2021/03/18 04:06:57;;;;;;;37.55;21.65;;;-0.80;99.50;;;;;;5089180;28;20232;-63
2021/03/18 04:09:24;;;;;;;32.67;22.48;;;-0.90;99.60;;;;;;5093904;28;20618;-63
2021/03/18 04:11:52;;;;;;;35.85;21.77;;;-0.90;99.60;;;;;;5087773;28;20202;-63
2021/03/18 04:14:24;;;;;;;35.85;25.05;;;-1.00;99.60;;;;;;5091105;28;20202;-63
2021/03/18 04:16:52;;;;;;;36.72;25.67;;;-0.20;99.90;;;;;;5091177;28;20396;-62
2021/03/18 04:19:20;;;;;;;40.67;26.13;;;-0.90;99.80;;;;;;5093565;28;20556;-62
2021/03/18 04:21:50;;;;;;;41.80;25.83;;;-1.20;99.90;;;;;;5092458;28;20219;-61
2021/03/18 04:24:19;;;;;;;44.60;28.13;;;-0.30;99.90;;;;;;5092318;28;20217;-63
2021/03/18 04:26:47;;;;;;;45.28;25.85;;;-1.10;99.90;;;;;;5091106;28;20226;-63
2021/03/18 04:29:15;;;;;;;35.58;26.25;;;-0.20;99.90;;;;;;5095123;28;20209;-62
2021/03/18 04:31:43;;;;;;;40.88;26.45;;;-1.10;99.90;;;;;;5090712;28;20496;-62
2021/03/18 04:34:12;;;;;;;40.35;26.13;;;-0.70;99.90;;;;;;5082943;28;20207;-60
2021/03/18 04:36:42;;;;;;;42.50;27.40;;;-0.20;99.90;;;;;;5088666;28;20241;-62
2021/03/18 04:39:10;;;;;;;50.95;26.75;;;-1.10;99.90;;;;;;5090676;28;20203;-61
2021/03/18 04:41:37;;;;;;;38.33;26.10;;;-1.10;99.90;;;;;;5091886;28;20378;-61
2021/03/18 04:44:08;;;;;;;47.75;27.75;;;-0.50;99.90;;;;;;5094963;28;20202;-62
2021/03/18 04:46:37;;;;;;;43.58;25.10;;;-1.20;99.90;;;;;;5095630;28;20226;-61
2021/03/18 04:49:05;;;;;;;43.58;26.88;;;-1.20;99.90;;;;;;5095372;28;20236;-62
2021/03/18 04:51:32;;;;;;;52.10;28.45;;;-0.50;99.90;;;;;;5092128;28;20215;-60
2021/03/18 04:53:59;;;;;;;38.38;27.65;;;-1.30;99.90;;;;;;5093436;28;20198;-61
2021/03/18 04:56:27;;;;;;;44.33;29.20;;;-1.20;99.90;;;;;;5097130;28;20385;-61
2021/03/18 04:58:58;;;;;;;44.03;27.77;;;-0.90;99.90;;;;;;5096861;28;20335;-61
2021/03/18 05:01:27;;;;;;;42.22;27.40;;;-0.60;99.90;;;;;;5093421;28;20384;-61
2021/03/18 05:03:55;;;;;;;41.78;26.33;;;-1.20;99.90;;;;;;5093453;28;20463;-60
2021/03/18 05:06:23;;;;;;;49.20;28.30;;;-0.10;99.90;;;;;;5100364;28;20268;-61
2021/03/18 05:08:51;;;;;;;41.72;27.55;;;-1.20;99.90;;;;;;5096049;28;20517;-62
2021/03/18 05:11:20;;;;;;;43.08;29.25;;;-1.20;99.90;;;;;;5099426;28;20206;-62
2021/03/18 05:13:48;;;;;;;48.47;31.50;;;-0.20;99.90;;;;;;5096741;28;20226;-62
2021/03/18 05:16:16;;;;;;;48.50;32.35;;;-1.10;99.90;;;;;;5091290;28;20272;-61
2021/03/18 05:18:43;;;;;;;48.38;28.88;;;-1.00;99.90;;;;;;5092184;28;20203;-60
2021/03/18 05:21:11;;;;;;;44.10;30.65;;;-0.80;99.90;;;;;;5096956;28;20284;-62
2021/03/18 05:23:39;;;;;;;47.22;30.50;;;-0.70;99.90;;;;;;5092636;28;20585;-61
2021/03/18 05:26:06;;;;;;;46.75;30.10;;;-0.60;99.90;;;;;;5095520;28;20229;-62
2021/03/18 05:28:33;;;;;;;41.33;28.15;;;-0.50;99.90;;;;;;5095000;28;20206;-61
2021/03/18 05:31:01;;;;;;;39.33;26.73;;;0.50;99.90;;;;;;5093843;28;20400;-60
2021/03/18 05:33:28;;;;;;;41.35;29.00;;;0.30;99.90;;;;;;5083606;28;20213;-60
2021/03/18 05:35:55;;;;;;;40.13;25.23;;;0.10;99.90;;;;;;5083171;28;20598;-60
2021/03/18 05:38:22;;;;;;;41.33;25.75;;;0.50;99.90;;;;;;5082117;28;20240;-61
2021/03/18 05:40:56;;;;;;;38.45;23.48;;;0.90;99.90;;;;;;5082595;28;20740;-60
2021/03/18 05:43:24;;;;;;;37.70;22.63;;;1.40;99.90;;;;;;5080259;28;20206;-60
2021/03/18 05:45:52;;;;;;;34.55;22.00;;;1.60;99.90;;;;;;5081792;28;20233;-60
2021/03/18 05:48:19;;;;;;;34.45;21.58;;;2.00;99.90;;;;;;5090467;28;20206;-61
2021/03/18 05:50:47;;;;;;;31.02;20.48;;;2.40;98.00;;;;;;5088967;28;20207;-62
2021/03/18 05:53:16;;;;;;;32.13;19.10;;;3.00;95.90;;;;;;5083890;28;20205;-62
2021/03/18 05:55:49;;;;;;;26.73;18.90;;;3.80;94.30;;;;;;5098370;28;20220;-62
2021/03/18 05:58:17;;;;;;;27.92;18.80;;;4.60;91.20;;;;;;5084245;28;20201;-62
2021/03/18 06:00:44;;;;;;;24.30;18.00;;;5.10;90.30;;;;;;5095495;28;20442;-61
2021/03/18 06:03:11;;;;;;;31.45;18.52;;;5.70;87.50;;;;;;5092566;28;20212;-63
2021/03/18 06:05:59;;;;;;;21.30;18.08;;;6.10;85.70;;;;;;5096378;28;20389;-63
2021/03/18 06:08:26;;;;;;;28.02;20.90;;;6.30;84.70;;;;;;5093378;28;20209;-63
2021/03/18 06:10:56;;;;;;;28.63;19.67;;;6.80;82.50;;;;;;5095939;28;20227;-64
2021/03/18 06:13:22;;;;;;;35.42;23.10;;;7.60;79.80;;;;;;5090328;28;20198;-64
2021/03/18 06:15:49;;;;;;;38.55;22.77;;;8.00;77.30;;;;;;5098698;28;20226;-64
2021/03/18 06:18:18;;;;;;;30.05;22.48;;;8.10;75.90;;;;;;5085631;28;20371;-65
2021/03/18 06:20:52;;;;;;;35.08;23.95;;;8.70;75.40;;;;;;5079319;28;20503;-65
2021/03/18 06:23:22;;;;;;;29.60;22.33;;;9.50;71.90;;;;;;5088752;28;20279;-65
2021/03/18 06:25:54;;;;;;;33.33;24.98;;;9.70;68.90;;;;;;5078281;28;20272;-66
2021/03/18 06:28:38;;;;;;;33.83;23.30;;;9.90;68.10;;;;;;5077946;28;20243;-65
2021/03/18 06:31:15;;;;;;;38.47;25.02;;;9.60;69.20;;;;;;5084032;28;20201;-66
2021/03/18 06:33:50;;;;;;;33.67;22.95;;;9.50;70.10;;;;;;5078150;28;20215;-67
2021/03/18 06:36:31;;;;;;;29.20;23.50;;;9.90;67.60;;;;;;5077838;28;20450;-67
2021/03/18 06:39:08;;;;;;;35.10;23.40;;;10.20;67.00;;;;;;5078129;28;20209;-67
2021/03/18 06:41:47;;;;;;;34.42;22.63;;;9.40;68.70;;;;;;5079583;28;20213;-67
2021/03/18 06:44:30;;;;;;;29.67;22.35;;;8.90;71.20;;;;;;5087541;28;20201;-68
2021/03/18 06:47:05;;;;;;;30.08;23.60;;;8.70;70.60;;;;;;5089486;28;20231;-67
2021/03/18 06:49:32;;;;;;;30.67;23.00;;;8.90;71.30;;;;;;5090818;28;20542;-69
2021/03/18 06:52:11;;;;;;;31.48;23.80;;;11.00;65.30;;;;;;5091696;28;20272;-68
2021/03/18 06:54:42;;;;;;;28.35;23.05;;;11.50;61.50;;;;;;5092215;28;20266;-66
2021/03/18 06:57:10;;;;;;;32.70;22.90;;;10.90;62.20;;;;;;5093056;28;20209;-67
2021/03/18 06:59:40;;;;;;;32.63;24.95;;;10.70;62.00;;;;;;5077039;28;20426;-68
2021/03/18 07:02:19;;;;;;;42.53;25.02;;;10.50;64.60;;;;;;5085625;28;20216;-68
2021/03/18 07:04:54;;;;;;;30.73;23.42;;;10.50;64.00;;;;;;5083267;28;20208;-68
2021/03/18 07:07:25;;;;;;;29.65;23.50;;;10.20;66.20;;;;;;5087685;28;20611;-68
2021/03/18 07:09:54;;;;;;;36.35;24.85;;;11.00;62.90;;;;;;5084925;28;20256;-67
2021/03/18 07:12:29;;;;;;;27.27;22.77;;;11.20;62.10;;;;;;5085941;28;20392;-67
2021/03/18 07:15:00;;;;;;;28.58;22.63;;;11.00;61.20;;;;;;5090555;28;20233;-67
2021/03/18 07:17:32;;;;;;;35.60;24.83;;;11.90;60.00;;;;;;5080016;28;20267;-66
2021/03/18 07:20:20;;;;;;;30.35;23.38;;;11.70;60.50;;;;;;5084710;28;20260;-66
2021/03/18 07:22:49;;;;;;;33.90;22.23;;;10.90;63.40;;;;;;5086103;28;20503;-66
2021/03/18 07:25:19;;;;;;;33.60;24.90;;;10.60;63.50;;;;;;5083987;28;20263;-66
2021/03/18 07:27:52;;;;;;;33.75;24.77;;;10.50;65.70;;;;;;5082021;28;20236;-66
2021/03/18 07:30:35;;;;;;;33.80;23.85;;;10.50;67.00;;;;;;5081326;28;20205;-65
2021/03/18 07:33:03;;;;;;;36.78;26.67;;;11.20;63.90;;;;;;5084137;28;20291;-66
2021/03/18 07:35:31;;;;;;;35.75;24.98;;;11.40;62.80;;;;;;5086670;28;20242;-65
2021/03/18 07:37:58;;;;;;;25.67;22.92;;;12.70;60.00;;;;;;5082591;28;20385;-66
2021/03/18 07:40:26;;;;;;;34.65;27.10;;;14.40;54.90;;;;;;5084746;28;20351;-68
2021/03/18 07:42:54;;;;;;;31.88;28.38;;;15.00;52.00;;;;;;5076608;28;20214;-66
2021/03/18 07:45:24;;;;;;;30.25;26.90;;;15.10;52.50;;;;;;5086588;28;20205;-66
2021/03/18 07:47:50;;;;;;;33.72;26.80;;;14.70;52.60;;;;;;5088638;28;20255;-68
2021/03/18 07:50:24;;;;;;;33.33;27.40;;;14.30;54.60;;;;;;5089396;28;20724;-68
2021/03/18 07:52:53;;;;;;;34.10;28.02;;;14.90;52.40;;;;;;5085491;28;20219;-68
2021/03/18 07:55:21;;;;;;;31.83;26.80;;;14.90;51.80;;;;;;5088863;28;20243;-67
2021/03/18 07:57:50;;;;;;;34.08;29.30;;;13.30;56.00;;;;;;5085307;28;20210;-68
2021/03/18 08:00:22;;;;;;;30.48;27.27;;;11.90;60.90;;;;;;5086839;28;20206;-68
2021/03/18 08:02:50;;;;;;;30.95;26.45;;;10.80;63.70;;;;;;5077455;28;20276;-67
2021/03/18 08:05:39;;;;;;;36.03;27.83;;;9.20;69.50;;;;;;5087329;28;20209;-68
2021/03/18 08:08:07;;;;;;;39.97;26.10;;;7.30;77.70;;;;;;5084589;28;20226;-67
2021/03/18 08:11:09;;;;;;;33.47;23.85;;;6.40;82.80;;;;;;5081754;28;20258;-68
2021/03/18 08:13:39;;;;;;;32.47;24.73;;;6.00;85.70;;;;;;5090708;28;20203;-68
2021/03/18 08:16:08;;;;;;;28.65;21.55;;;6.20;85.30;;;;;;5081225;28;20210;-67
2021/03/18 08:18:38;;;;;;;30.88;23.80;;;6.50;84.40;;;;;;5084424;28;20199;-67
2021/03/18 08:21:06;;;;;;;29.58;22.55;;;6.50;83.80;;;;;;5083427;28;20404;-67
2021/03/18 08:23:35;;;;;;;32.53;23.75;;;6.20;84.80;;;;;;5080246;28;20419;-68
2021/03/18 08:26:08;;;;;;;37.60;26.00;;;6.10;85.70;;;;;;5077492;28;20230;-66
2021/03/18 08:28:48;;;;;;;41.78;27.25;;;5.60;87.90;;;;;;5081895;28;20242;-68
2021/03/18 08:31:15;;;;;;;39.03;28.13;;;5.30;89.10;;;;;;5081641;28;20283;-67
2021/03/18 08:33:56;;;;;;;46.47;28.13;;;5.10;90.20;;;;;;5081198;28;20367;-67
2021/03/18 08:36:28;;;;;;;44.33;28.45;;;5.00;90.40;;;;;;5035223;28;20215;-67
2021/03/18 08:38:56;;;;;;;41.55;29.92;;;4.90;90.60;;;;;;5044036;28;20253;-68
2021/03/18 08:41:44;;;;;;;42.42;28.77;;;5.00;90.20;;;;;;5043415;28;20675;-67
2021/03/18 08:44:24;;;;;;;42.95;28.27;;;4.70;90.80;;;;;;5050962;28;20213;-68
2021/03/18 08:47:06;;;;;;;40.85;28.35;;;4.60;91.00;;;;;;5041543;28;20236;-68
2021/03/18 08:49:44;;;;;;;49.20;30.38;;;4.90;90.60;;;;;;5041323;28;20253;-68
2021/03/18 08:52:19;;;;;;;43.97;29.00;;;5.40;90.60;;;;;;5036036;28;20207;-67
2021/03/18 08:54:51;;;;;;;47.60;30.27;;;5.80;88.70;;;;;;5032917;28;20211;-68
2021/03/18 08:57:26;;;;;;;41.15;25.98;;;6.20;87.50;;;;;;5047025;28;20556;-67
2021/03/18 09:00:10;;;;;;;40.05;27.70;;;7.60;83.30;;;;;;5039469;28;20206;-67
2021/03/18 09:02:38;;;;;;;46.83;29.00;;;7.80;78.30;;;;;;5044691;28;20521;-68
2021/03/18 09:05:19;;;;;;;46.25;28.73;;;7.20;80.00;;;;;;5044283;28;20281;-67
2021/03/18 09:07:51;;;;;;;38.58;27.55;;;7.10;82.40;;;;;;5051848;28;20246;-67
2021/03/18 09:10:24;;;;;;;42.78;30.73;;;8.00;79.60;;;;;;5043414;28;20207;-67
2021/03/18 09:12:55;;;;;;;47.80;33.33;;;9.00;76.50;;;;;;5044121;28;20204;-67
2021/03/18 09:15:37;;;;;;;53.78;34.15;;;8.00;78.40;;;;;;5041040;28;20618;-67
2021/03/18 09:18:22;;;;;;;44.13;32.50;;;7.80;80.00;;;;;;5050224;28;20401;-67
2021/03/18 09:20:57;;;;;;;55.17;35.05;;;7.50;80.70;;;;;;5037703;28;20275;-66
2021/03/18 09:23:30;;;;;;;48.63;33.50;;;6.90;83.50;;;;;;5037755;28;20290;-67
2021/03/18 09:26:01;;;;;;;49.75;31.15;;;6.80;84.70;;;;;;5043283;28;20232;-66
2021/03/18 09:28:37;;;;;;;46.00;31.67;;;6.60;85.50;;;;;;5036766;28;20223;-67
2021/03/18 09:31:05;;;;;;;46.30;33.65;;;6.40;87.10;;;;;;5046151;28;20385;-68
2021/03/18 09:33:38;;;;;;;46.60;31.15;;;6.70;85.90;;;;;;5043722;28;20429;-66
2021/03/18 09:36:14;;;;;;;48.50;32.88;;;7.00;84.50;;;;;;5083312;28;20250;-67
2021/03/18 09:38:55;;;;;;;43.88;31.27;;;7.40;83.10;;;;;;5086230;28;20199;-67
2021/03/18 09:41:24;;;;;;;50.53;32.92;;;7.10;83.90;;;;;;5083465;28;20202;-68
2021/03/18 09:44:05;;;;;;;43.40;30.55;;;6.80;86.50;;;;;;5091557;28;20222;-67
2021/03/18 09:46:33;;;;;;;44.80;31.25;;;7.10;85.10;;;;;;5083586;28;20324;-67
2021/03/18 09:49:01;;;;;;;50.00;33.00;;;6.90;83.80;;;;;;5089421;28;20229;-66
2021/03/18 09:51:33;;;;;;;50.47;31.70;;;6.90;86.20;;;;;;5087204;28;20442;-67
2021/03/18 09:54:05;;;;;;;46.00;30.92;;;6.90;85.60;;;;;;5090536;28;20278;-68
2021/03/18 09:56:41;;;;;;;53.28;34.13;;;7.50;83.60;;;;;;5090642;28;20305;-68
2021/03/18 09:59:13;;;;;;;49.45;33.25;;;7.80;83.00;;;;;;5090444;28;20230;-67
2021/03/18 10:01:40;;;;;;;48.35;31.80;;;8.00;80.50;;;;;;5086592;28;20238;-67
2021/03/18 10:04:12;;;;;;;44.13;31.65;;;8.20;80.60;;;;;;5082702;28;20247;-67
2021/03/18 10:06:48;;;;;;;53.92;32.70;;;8.20;81.20;;;;;;5086636;28;20552;-67
2021/03/18 10:09:21;;;;;;;43.45;30.75;;;7.50;81.90;;;;;;5091907;28;20198;-68
2021/03/18 10:12:09;;;;;;;47.42;29.90;;;6.90;83.80;;;;;;5085830;28;20642;-69
2021/03/18 10:14:50;;;;;;;42.33;29.65;;;7.10;84.50;;;;;;5086865;28;20199;-67
2021/03/18 10:17:25;;;;;;;45.85;31.85;;;7.60;84.30;;;;;;5094221;28;20210;-66
2021/03/18 10:19:55;;;;;;;48.08;33.05;;;7.60;82.00;;;;;;5086310;28;20405;-67
2021/03/18 10:22:29;;;;;;;47.50;30.48;;;7.50;83.10;;;;;;5090558;28;20266;-67
2021/03/18 10:25:16;;;;;;;47.35;29.65;;;7.10;83.20;;;;;;5083783;28;20231;-67
2021/03/18 10:27:49;;;;;;;41.83;29.52;;;6.90;85.00;;;;;;5077606;28;20425;-67
2021/03/18 10:30:18;;;;;;;43.80;27.88;;;6.80;85.30;;;;;;5078251;28;20241;-67
2021/03/18 10:33:02;;;;;;;47.78;31.45;;;6.80;85.60;;;;;;5077154;28;20214;-67
2021/03/18 10:35:31;;;;;;;49.28;29.75;;;6.80;86.80;;;;;;5091316;28;20271;-66
2021/03/18 10:37:58;;;;;;;38.78;28.13;;;7.00;86.80;;;;;;5085395;28;20545;-67
2021/03/18 10:40:28;;;;;;;34.17;23.33;;;7.30;85.50;;;;;;5089140;28;20213;-66
2021/03/18 10:42:58;;;;;;;36.28;24.80;;;7.00;83.40;;;;;;5089028;28;20211;-66
2021/03/18 10:45:29;;;;;;;36.78;24.83;;;6.80;85.20;;;;;;5084806;28;20209;-67
2021/03/18 10:48:06;;;;;;;33.90;24.15;;;6.60;86.80;;;;;;5078927;28;20226;-67
2021/03/18 10:50:35;;;;;;;27.83;20.77;;;6.40;87.50;;;;;;5083876;28;20456;-66
2021/03/18 10:53:06;;;;;;;27.80;22.08;;;6.30;86.80;;;;;;5085240;28;20207;-67
2021/03/18 10:55:39;;;;;;;22.48;19.10;;;6.20;87.30;;;;;;5092911;28;20238;-67
2021/03/18 10:58:14;;;;;;;25.85;17.67;;;6.10;86.90;;;;;;5087509;28;20225;-67
2021/03/18 11:00:41;;;;;;;26.50;19.02;;;6.30;87.10;;;;;;5082418;28;20243;-67
2021/03/18 11:03:16;;;;;;;23.75;18.90;;;6.50;85.30;;;;;;5088315;28;20207;-67
2021/03/18 11:05:49;;;;;;;26.25;15.73;;;6.50;85.40;;;;;;5083556;28;20500;-67
2021/03/18 11:08:25;;;;;;;18.25;14.60;;;6.40;83.10;;;;;;5088126;28;20203;-67
2021/03/18 11:10:54;;;;;;;25.80;16.75;;;6.40;83.50;;;;;;5085057;28;20214;-68
2021/03/18 11:13:26;;;;;;;22.23;16.77;;;6.20;83.90;;;;;;5090852;28;20206;-66
2021/03/18 11:15:59;;;;;;;21.50;14.25;;;6.30;84.90;;;;;;5080443;28;20216;-67
2021/03/18 11:18:37;;;;;;;25.77;14.45;;;6.20;84.50;;;;;;5076671;28;20247;-67
2021/03/18 11:21:35;;;;;;;18.95;15.80;;;6.20;84.80;;;;;;5084887;28;20464;-66
2021/03/18 11:24:14;;;;;;;28.35;16.95;;;6.30;84.20;;;;;;5077936;28;20245;-68
2021/03/18 11:27:02;;;;;;;21.95;16.42;;;6.50;84.10;;;;;;5077232;28;20257;-68
2021/03/18 11:29:33;;;;;;;22.42;15.80;;;6.80;84.00;;;;;;5076470;28;20203;-67
2021/03/18 11:32:03;;;;;;;24.27;16.02;;;7.30;82.20;;;;;;5076953;28;20217;-67
2021/03/18 11:34:32;;;;;;;20.27;16.48;;;7.30;80.30;;;;;;5076312;28;20234;-67
2021/03/18 11:37:04;;;;;;;14.57;12.10;;;7.20;78.60;;;;;;5080200;28;20371;-67
2021/03/18 11:39:32;;;;;;;16.77;13.35;;;7.00;78.80;;;;;;5080307;28;20201;-68
2021/03/18 11:41:59;;;;;;;17.17;13.73;;;7.10;79.70;;;;;;5084175;28;20403;-68
2021/03/18 11:44:29;;;;;;;13.55;11.60;;;7.20;79.50;;;;;;5083385;28;20204;-68
2021/03/18 11:47:05;;;;;;;16.02;14.13;;;7.50;78.90;;;;;;5083512;28;20231;-68
2021/03/18 11:49:32;;;;;;;14.40;11.77;;;7.70;77.50;;;;;;5084129;28;20210;-67
2021/03/18 11:51:59;;;;;;;14.95;13.38;;;7.40;75.60;;;;;;5081576;28;20503;-67
2021/03/18 11:54:26;;;;;;;15.50;10.98;;;7.10;78.10;;;;;;5082090;28;20393;-68
2021/03/18 11:56:52;;;;;;;12.10;10.82;;;6.70;78.20;;;;;;5091113;28;20217;-69
2021/03/18 11:59:19;;;;;;;11.60;9.77;;;6.60;79.90;;;;;;5091585;28;20674;-69
2021/03/18 12:01:46;;;;;;;9.60;8.70;;;6.50;79.20;;;;;;5093398;28;20202;-67
2021/03/18 12:04:14;;;;;;;9.27;8.38;;;6.60;79.70;;;;;;5085343;28;20230;-68
2021/03/18 12:06:41;;;;;;;11.65;9.23;;;6.80;78.50;;;;;;5075980;28;20253;-68
2021/03/18 12:09:08;;;;;;;8.40;6.57;;;7.00;78.00;;;;;;5092909;28;20493;-69
2021/03/18 12:11:35;;;;;;;8.13;7.22;;;6.60;76.00;;;;;;5081656;28;20285;-68
2021/03/18 12:14:02;;;;;;;10.18;6.22;;;6.40;78.10;;;;;;5088621;28;20254;-67
2021/03/18 12:16:29;;;;;;;8.68;6.93;;;6.40;77.70;;;;;;5083511;28;20211;-67
2021/03/18 12:18:56;;;;;;;7.90;7.13;;;6.50;76.50;;;;;;5086540;28;20210;-66
2021/03/18 12:21:23;;;;;;;8.15;6.50;;;6.90;76.50;;;;;;5074870;28;20225;-68
2021/03/18 12:23:49;;;;;;;7.85;7.15;;;6.90;74.60;;;;;;5080979;28;20213;-66
2021/03/18 12:26:16;;;;;;;7.30;6.65;;;6.70;73.90;;;;;;5083075;28;20237;-68
2021/03/18 12:28:43;;;;;;;7.63;6.93;;;6.60;75.90;;;;;;5076064;28;20203;-68
2021/03/18 12:31:10;;;;;;;6.25;5.50;;;6.70;76.10;;;;;;5087362;28;20477;-68
2021/03/18 12:33:36;;;;;;;8.43;7.63;;;7.00;73.40;;;;;;5086181;28;20245;-67
2021/03/18 12:36:04;;;;;;;8.88;6.68;;;7.20;72.10;;;;;;5082136;28;20471;-67
2021/03/18 12:38:31;;;;;;;7.55;6.85;;;7.50;72.90;;;;;;5079177;28;20404;-68
2021/03/18 12:40:57;;;;;;;7.57;6.88;;;7.80;69.60;;;;;;5081198;28;20291;-67
2021/03/18 12:43:24;;;;;;;7.22;6.63;;;8.00;69.80;;;;;;5079107;28;20285;-68
2021/03/18 12:45:52;;;;;;;8.48;6.20;;;8.00;70.80;;;;;;5080421;28;20207;-67
2021/03/18 12:48:18;;;;;;;8.70;7.55;;;8.20;68.30;;;;;;5075738;28;20234;-68
2021/03/18 12:50:45;;;;;;;7.30;6.60;;;8.20;65.80;;;;;;5074355;28;20217;-67
2021/03/18 12:53:12;;;;;;;7.70;6.82;;;8.20;64.80;;;;;;5083495;28;20202;-68